createdAt,value
2022-11-04T00:01:41.058Z,12.82
2022-11-04T00:04:10.029Z,12.77
2022-11-04T00:06:38.596Z,12.84
2022-11-04T00:09:10.691Z,12.89
2022-11-04T00:11:56.063Z,12.94
2022-11-04T00:14:23.954Z,12.97
2022-11-04T00:17:09.394Z,12.90
2022-11-04T00:19:51.132Z,12.88
2022-11-04T00:22:36.187Z,12.84
2022-11-04T00:25:23.735Z,12.83
2022-11-04T00:28:09.376Z,12.82
2022-11-04T00:30:37.631Z,12.81
2022-11-04T00:33:31.276Z,12.78
2022-11-04T00:35:59.072Z,12.78
2022-11-04T00:38:27.155Z,12.79
2022-11-04T00:40:56.387Z,12.80
2022-11-04T00:43:24.228Z,12.78
2022-11-04T00:45:52.016Z,12.77
2022-11-04T00:48:19.882Z,12.75
2022-11-04T00:50:47.655Z,12.76
2022-11-04T00:53:15.504Z,12.72
2022-11-04T00:55:43.453Z,12.76
2022-11-04T00:58:12.580Z,12.77
2022-11-04T01:00:40.571Z,12.76
2022-11-04T01:03:08.668Z,12.76
2022-11-04T01:05:38.661Z,12.75
2022-11-04T01:08:06.600Z,12.71
2022-11-04T01:10:36.196Z,12.64
2022-11-04T01:13:04.115Z,12.53
2022-11-04T01:15:33.242Z,12.56
2022-11-04T01:18:01.065Z,12.51
2022-11-04T01:20:28.860Z,12.45
2022-11-04T01:22:56.687Z,12.42
2022-11-04T01:25:24.514Z,12.37
2022-11-04T01:27:52.395Z,12.31
2022-11-04T01:30:20.404Z,12.33
2022-11-04T01:32:49.572Z,12.08
2022-11-04T01:35:17.557Z,12.30
2022-11-04T01:37:45.364Z,12.25
2022-11-04T01:40:13.433Z,12.23
2022-11-04T01:42:41.291Z,12.20
2022-11-04T01:45:14.631Z,12.20
2022-11-04T01:47:45.708Z,12.18
2022-11-04T01:50:18.279Z,12.15
2022-11-04T01:52:51.716Z,12.16
2022-11-04T01:55:24.965Z,12.14
2022-11-04T01:57:56.651Z,12.14
2022-11-04T02:00:24.869Z,12.12
2022-11-04T02:02:59.947Z,12.12
2022-11-04T02:05:31.293Z,12.08
2022-11-04T02:08:01.231Z,12.11
2022-11-04T02:10:30.811Z,12.07
2022-11-04T02:13:02.028Z,12.11
2022-11-04T02:15:40.955Z,12.11
2022-11-04T02:18:30.691Z,12.13
2022-11-04T02:21:23.588Z,12.11
2022-11-04T02:24:41.989Z,12.09
2022-11-04T02:27:31.248Z,12.13
2022-11-04T02:30:08.012Z,12.16
2022-11-04T02:32:43.390Z,12.16
2022-11-04T02:35:19.732Z,12.16
2022-11-04T02:37:57.222Z,12.14
2022-11-04T02:40:32.956Z,12.14
2022-11-04T02:43:03.918Z,12.13
2022-11-04T02:45:38.998Z,12.13
2022-11-04T02:48:12.375Z,12.12
2022-11-04T02:50:45.058Z,12.11
2022-11-04T02:53:18.358Z,12.08
2022-11-04T02:55:49.460Z,12.12
2022-11-04T02:58:22.710Z,12.07
2022-11-04T03:00:53.724Z,12.10
2022-11-04T03:03:25.324Z,12.10
2022-11-04T03:05:55.911Z,12.12
2022-11-04T03:08:30.909Z,12.12
2022-11-04T03:11:04.014Z,12.11
2022-11-04T03:13:37.952Z,12.09
2022-11-04T03:16:12.423Z,12.08
2022-11-04T03:18:47.555Z,12.12
2022-11-04T03:21:18.082Z,12.16
2022-11-04T03:23:46.003Z,12.17
2022-11-04T03:26:20.710Z,12.18
2022-11-04T03:28:57.473Z,12.17
2022-11-04T03:31:34.562Z,12.18
2022-11-04T03:34:02.682Z,12.23
2022-11-04T03:36:30.686Z,12.29
2022-11-04T03:38:58.528Z,12.34
2022-11-04T03:41:35.391Z,12.38
2022-11-04T03:44:03.266Z,12.35
2022-11-04T03:46:32.517Z,12.43
2022-11-04T03:49:01.254Z,12.47
2022-11-04T03:51:29.026Z,12.49
2022-11-04T03:53:57.782Z,12.47
2022-11-04T03:57:05.351Z,12.46
2022-11-04T04:00:01.186Z,12.50
2022-11-04T04:02:39.816Z,12.43
2022-11-04T04:05:16.071Z,12.49
2022-11-04T04:07:50.794Z,12.45
2022-11-04T04:10:42.827Z,12.51
2022-11-04T04:13:18.930Z,12.49
2022-11-04T04:15:53.423Z,12.51
2022-11-04T04:18:30.491Z,12.47
2022-11-04T04:21:02.781Z,12.42
2022-11-04T04:23:50.771Z,12.38
2022-11-04T04:26:39.578Z,12.34
2022-11-04T04:29:09.385Z,12.37
2022-11-04T04:31:52.357Z,12.36
2022-11-04T04:34:24.043Z,12.33
2022-11-04T04:36:58.313Z,12.32
2022-11-04T04:39:47.987Z,12.34
2022-11-04T04:42:33.320Z,12.40
2022-11-04T04:45:06.396Z,12.42
2022-11-04T04:47:42.658Z,12.48
2022-11-04T04:50:14.013Z,12.52
2022-11-04T04:52:44.156Z,12.54
2022-11-04T04:55:12.723Z,12.57
2022-11-04T04:57:40.691Z,12.60
2022-11-04T05:00:13.236Z,12.58
2022-11-04T05:02:41.133Z,12.57
2022-11-04T05:05:10.389Z,12.64
2022-11-04T05:07:39.661Z,12.71
2022-11-04T05:10:08.649Z,12.75
2022-11-04T05:12:56.587Z,12.80
2022-11-04T05:15:24.912Z,12.84
2022-11-04T05:17:55.550Z,12.89
2022-11-04T05:20:23.560Z,12.92
2022-11-04T05:22:52.883Z,12.92
2022-11-04T05:25:20.751Z,12.94
2022-11-04T05:27:48.581Z,12.92
2022-11-04T05:30:16.505Z,12.93
2022-11-04T05:32:44.299Z,12.92
2022-11-04T05:35:12.204Z,12.94
2022-11-04T05:37:40.013Z,12.96
2022-11-04T05:40:10.473Z,12.98
2022-11-04T05:42:38.261Z,12.97
2022-11-04T05:45:06.995Z,12.98
2022-11-04T05:47:34.825Z,12.92
2022-11-04T05:50:02.630Z,12.94
2022-11-04T05:52:30.549Z,12.94
2022-11-04T05:54:58.394Z,12.95
2022-11-04T05:57:27.550Z,12.95
2022-11-04T05:59:55.375Z,12.96
2022-11-04T06:02:23.396Z,12.96
2022-11-04T06:04:51.238Z,12.98
2022-11-04T06:07:19.092Z,12.98
2022-11-04T06:09:46.885Z,13.03
2022-11-04T06:12:16.703Z,13.05
2022-11-04T06:14:46.017Z,13.06
2022-11-04T06:17:16.053Z,13.08
2022-11-04T06:19:44.297Z,13.08
2022-11-04T06:22:12.880Z,13.11
2022-11-04T06:24:40.991Z,13.12
2022-11-04T06:27:08.878Z,13.16
2022-11-04T06:29:39.964Z,13.21
2022-11-04T06:32:10.126Z,13.21
2022-11-04T06:34:38.244Z,13.31
2022-11-04T06:37:06.451Z,13.34
2022-11-04T06:39:34.329Z,13.41
2022-11-04T06:42:02.896Z,13.47
2022-11-04T06:44:31.016Z,13.50
2022-11-04T06:46:58.838Z,13.56
2022-11-04T06:49:27.999Z,13.63
2022-11-04T06:51:55.817Z,13.70
2022-11-04T06:54:23.678Z,13.75
2022-11-04T06:56:51.446Z,13.77
2022-11-04T06:59:21.847Z,13.81
2022-11-04T07:01:50.992Z,13.87
2022-11-04T07:04:19.303Z,13.94
2022-11-04T07:06:48.443Z,14.00
2022-11-04T07:09:17.102Z,13.95
2022-11-04T07:11:45.912Z,14.07
2022-11-04T07:14:14.659Z,14.11
2022-11-04T07:16:42.503Z,14.13
2022-11-04T07:19:10.283Z,14.16
2022-11-04T07:21:38.425Z,14.19
2022-11-04T07:24:08.265Z,14.25
2022-11-04T07:26:36.085Z,14.24
2022-11-04T07:29:06.560Z,14.19
2022-11-04T07:31:34.475Z,14.13
2022-11-04T07:34:03.027Z,14.08
2022-11-04T07:36:31.211Z,13.99
2022-11-04T07:38:59.032Z,13.95
2022-11-04T07:41:29.408Z,13.91
2022-11-04T07:43:58.814Z,13.88
2022-11-04T07:46:26.667Z,13.84
2022-11-04T07:48:57.475Z,13.80
2022-11-04T07:51:26.200Z,13.78
2022-11-04T07:53:54.173Z,13.74
2022-11-04T07:56:23.977Z,13.72
2022-11-04T07:58:53.821Z,13.67
2022-11-04T08:01:24.404Z,13.66
2022-11-04T08:03:53.079Z,13.64
2022-11-04T08:06:22.250Z,13.65
2022-11-04T08:08:50.244Z,13.66
2022-11-04T08:11:21.313Z,13.68
2022-11-04T08:13:49.223Z,13.67
2022-11-04T08:16:21.840Z,13.53
2022-11-04T08:18:52.572Z,13.47
2022-11-04T08:21:21.711Z,13.46
2022-11-04T08:23:51.433Z,13.27
2022-11-04T08:26:23.353Z,13.39
2022-11-04T08:28:51.786Z,13.44
2022-11-04T08:31:24.202Z,13.50
2022-11-04T08:33:52.705Z,13.41
2022-11-04T08:36:23.256Z,13.55
2022-11-04T08:38:51.947Z,13.58
2022-11-04T08:41:22.852Z,13.60
2022-11-04T08:43:50.671Z,13.60
2022-11-04T08:46:19.263Z,13.65
2022-11-04T08:48:49.455Z,13.68
2022-11-04T08:51:19.310Z,13.71
2022-11-04T08:53:47.115Z,13.76
2022-11-04T08:56:17.195Z,13.84
2022-11-04T08:58:45.505Z,13.86
2022-11-04T09:01:13.757Z,13.92
2022-11-04T09:03:42.261Z,13.98
2022-11-04T09:06:14.682Z,14.00
2022-11-04T09:08:43.382Z,13.96
2022-11-04T09:11:13.284Z,13.96
2022-11-04T09:13:41.806Z,13.91
2022-11-04T09:16:11.545Z,13.88
2022-11-04T09:18:39.959Z,13.78
2022-11-04T09:21:09.637Z,13.86
2022-11-04T09:23:39.274Z,13.85
2022-11-04T09:26:09.640Z,13.88
2022-11-04T09:28:37.713Z,13.85
2022-11-04T09:31:07.414Z,13.81
2022-11-04T09:33:35.351Z,13.84
2022-11-04T09:36:03.379Z,13.82
2022-11-04T09:38:31.206Z,13.79
2022-11-04T09:41:01.745Z,13.79
2022-11-04T09:43:37.805Z,13.81
2022-11-04T09:46:06.152Z,13.80
2022-11-04T09:48:40.841Z,13.79
2022-11-04T09:51:20.811Z,13.82
2022-11-04T09:54:01.094Z,13.83
2022-11-04T09:56:36.287Z,13.83
2022-11-04T09:59:05.138Z,13.82
2022-11-04T10:01:38.840Z,13.79
2022-11-04T10:04:19.263Z,13.78
2022-11-04T10:07:03.508Z,13.77
2022-11-04T10:09:45.539Z,13.77
2022-11-04T10:12:39.902Z,13.78
2022-11-04T10:15:29.084Z,13.78
2022-11-04T10:18:07.859Z,13.73
2022-11-04T10:20:50.987Z,13.71
2022-11-04T10:23:23.962Z,13.68
2022-11-04T10:25:59.395Z,13.65
2022-11-04T10:28:37.016Z,13.61
2022-11-04T10:31:06.171Z,13.61
2022-11-04T10:33:36.478Z,13.60
2022-11-04T10:36:08.171Z,13.59
2022-11-04T10:38:40.293Z,13.60
2022-11-04T10:41:21.248Z,13.59
2022-11-04T10:43:52.161Z,13.56
2022-11-04T10:46:38.247Z,13.50
2022-11-04T10:49:26.152Z,13.47
2022-11-04T10:51:54.796Z,13.43
2022-11-04T10:54:23.318Z,13.44
2022-11-04T10:56:53.618Z,13.36
2022-11-04T10:59:25.919Z,13.36
2022-11-04T11:01:55.591Z,13.32
2022-11-04T11:04:29.511Z,13.32
2022-11-04T11:06:59.310Z,13.22
2022-11-04T11:09:29.889Z,13.33
2022-11-04T11:12:00.998Z,13.34
2022-11-04T11:14:38.684Z,13.36
2022-11-04T11:17:24.208Z,13.39
2022-11-04T11:19:56.873Z,13.40
2022-11-04T11:22:35.605Z,13.37
2022-11-04T11:25:25.490Z,13.32
2022-11-04T11:27:55.711Z,13.30
2022-11-04T11:30:28.383Z,13.33
2022-11-04T11:33:00.109Z,13.36
2022-11-04T11:35:32.191Z,13.36
2022-11-04T11:38:04.041Z,13.28
2022-11-04T11:40:43.819Z,13.36
2022-11-04T11:43:28.446Z,13.35
2022-11-04T11:46:00.888Z,13.26
2022-11-04T11:48:30.323Z,13.36
2022-11-04T11:51:00.164Z,13.35
2022-11-04T11:53:30.114Z,13.36
2022-11-04T11:56:10.538Z,13.39
2022-11-04T12:01:37.806Z,13.44
2022-11-04T12:10:07.055Z,13.33
2022-11-04T12:12:53.039Z,13.35
2022-11-04T12:16:06.459Z,13.41
2022-11-04T12:19:09.993Z,13.44
2022-11-04T12:21:43.505Z,13.40
2022-11-04T12:24:23.299Z,13.41
2022-11-04T12:26:58.254Z,13.30
2022-11-04T12:29:41.827Z,13.20
2022-11-04T12:32:21.068Z,13.22
2022-11-04T12:35:03.599Z,13.20
2022-11-04T12:37:42.351Z,13.27
2022-11-04T12:40:16.979Z,13.34
2022-11-04T12:43:01.188Z,13.47
2022-11-04T12:45:40.712Z,13.56
2022-11-04T12:48:12.771Z,13.61
2022-11-04T12:50:53.995Z,13.70
2022-11-04T12:53:45.687Z,13.81
2022-11-04T12:56:15.775Z,13.89
2022-11-04T12:59:09.100Z,13.82
2022-11-04T13:01:42.887Z,13.86
2022-11-04T13:04:14.881Z,13.79
2022-11-04T13:06:47.670Z,13.62
2022-11-04T13:09:32.424Z,13.47
2022-11-04T13:12:05.927Z,13.49
2022-11-04T13:14:40.623Z,13.46
2022-11-04T13:17:13.500Z,13.36
2022-11-04T13:19:46.550Z,13.35
2022-11-04T13:22:19.337Z,13.32
2022-11-04T13:24:52.379Z,13.32
2022-11-04T13:27:23.615Z,13.41
2022-11-04T13:30:08.619Z,13.51
2022-11-04T13:32:41.738Z,13.60
2022-11-04T13:35:19.192Z,13.60
2022-11-04T13:37:56.317Z,13.63
2022-11-04T13:40:29.304Z,13.62
2022-11-04T13:43:32.457Z,13.54
2022-11-04T13:46:00.645Z,13.61
2022-11-04T13:48:31.601Z,13.60
2022-11-04T13:51:02.724Z,13.59
2022-11-04T13:53:46.595Z,13.58
2022-11-04T13:56:34.159Z,13.54
2022-11-04T13:59:08.245Z,13.51
2022-11-04T14:01:36.480Z,13.41
2022-11-04T14:04:20.905Z,13.44
2022-11-04T14:06:54.859Z,13.34
2022-11-04T14:09:58.515Z,13.29
2022-11-04T14:12:35.437Z,13.25
2022-11-04T14:15:17.643Z,13.25
2022-11-04T14:18:07.852Z,13.25
2022-11-04T14:20:38.389Z,13.24
2022-11-04T14:23:08.823Z,13.22
2022-11-04T14:25:39.971Z,13.23
2022-11-04T14:28:29.096Z,13.29
2022-11-04T14:30:59.777Z,13.32
2022-11-04T14:33:35.527Z,13.32
2022-11-04T14:36:31.178Z,13.31
2022-11-04T14:39:03.657Z,13.31
2022-11-04T14:42:06.747Z,13.30
2022-11-04T14:44:45.711Z,13.26
2022-11-04T14:47:19.849Z,13.22
2022-11-04T14:49:50.917Z,13.14
2022-11-04T14:52:25.583Z,13.12
2022-11-04T14:54:58.292Z,13.16
2022-11-04T14:57:26.252Z,13.19
2022-11-04T14:59:55.411Z,13.20
2022-11-04T15:02:25.949Z,13.22
2022-11-04T15:04:58.720Z,13.18
2022-11-04T15:07:37.898Z,13.14
2022-11-04T15:10:21.054Z,13.23
2022-11-04T15:12:52.286Z,13.24
2022-11-04T15:15:34.044Z,13.18
2022-11-04T15:18:05.237Z,13.24
2022-11-04T15:20:34.308Z,13.28
2022-11-04T15:23:04.925Z,13.29
2022-11-04T15:25:32.779Z,13.28
2022-11-04T15:28:00.879Z,13.26
2022-11-04T15:30:31.911Z,13.22
2022-11-04T15:33:01.917Z,13.24
2022-11-04T15:35:31.424Z,13.24
2022-11-04T15:38:02.009Z,13.26
2022-11-04T15:40:31.105Z,13.24
2022-11-04T15:43:02.406Z,13.17
2022-11-04T15:45:38.132Z,13.06
2022-11-04T15:48:26.823Z,12.96
2022-11-04T15:51:13.462Z,12.90
2022-11-04T15:53:50.924Z,12.89
2022-11-04T15:56:22.215Z,12.88
2022-11-04T15:58:50.574Z,12.92
2022-11-04T16:01:20.752Z,12.91
2022-11-04T16:03:51.871Z,12.92
2022-11-04T16:06:34.669Z,12.94
2022-11-04T16:09:05.583Z,13.03
2022-11-04T16:11:33.454Z,13.07
2022-11-04T16:14:23.386Z,13.08
2022-11-04T16:16:53.924Z,13.08
2022-11-04T16:19:24.361Z,13.12
2022-11-04T16:22:00.732Z,13.13
2022-11-04T16:24:32.728Z,13.17
2022-11-04T16:27:00.595Z,13.20
2022-11-04T16:29:32.140Z,13.20
2022-11-04T16:32:18.072Z,13.17
2022-11-04T16:34:47.093Z,13.17
2022-11-04T16:37:14.930Z,13.09
2022-11-04T16:39:45.147Z,13.10
2022-11-04T16:42:15.219Z,13.09
2022-11-04T16:44:49.481Z,13.17
2022-11-04T16:47:20.092Z,13.19
2022-11-04T16:49:48.268Z,13.22
2022-11-04T16:52:21.453Z,13.24
2022-11-04T16:54:49.331Z,13.22
2022-11-04T16:57:17.772Z,13.12
2022-11-04T16:59:45.645Z,13.20
2022-11-04T17:02:22.301Z,13.18
2022-11-04T17:04:50.375Z,13.19
2022-11-04T17:07:18.356Z,13.15
2022-11-04T17:09:46.182Z,13.12
2022-11-04T17:12:14.037Z,13.15
2022-11-04T17:14:41.904Z,13.09
2022-11-04T17:17:11.445Z,13.04
2022-11-04T17:19:40.647Z,12.89
2022-11-04T17:22:09.380Z,12.77
2022-11-04T17:24:37.873Z,12.67
2022-11-04T17:27:06.430Z,12.59
2022-11-04T17:29:37.329Z,12.49
2022-11-04T17:32:06.739Z,12.45
2022-11-04T17:34:40.655Z,12.42
2022-11-04T17:37:13.171Z,12.40
2022-11-04T17:39:41.226Z,12.40
2022-11-04T17:42:26.752Z,12.43
2022-11-04T17:44:54.568Z,12.44
2022-11-04T17:47:22.503Z,12.47
2022-11-04T17:49:50.312Z,12.51
2022-11-04T17:52:19.988Z,12.52
2022-11-04T17:54:47.774Z,12.63
2022-11-04T17:57:15.582Z,12.66
2022-11-04T17:59:43.370Z,12.69
2022-11-04T18:02:11.557Z,12.69
2022-11-04T18:04:39.476Z,12.68
2022-11-04T18:07:07.293Z,12.72
2022-11-04T18:09:36.503Z,12.54
2022-11-04T18:12:22.124Z,12.76
2022-11-04T18:14:50.167Z,12.78
2022-11-04T18:17:18.060Z,12.79
2022-11-04T18:19:45.864Z,12.81
2022-11-04T18:22:13.754Z,12.86
2022-11-04T18:24:43.102Z,12.89
2022-11-04T18:27:11.290Z,12.92
2022-11-04T18:29:39.100Z,12.95
2022-11-04T18:32:07.516Z,12.95
2022-11-04T18:34:35.671Z,12.91
2022-11-04T18:37:03.673Z,12.83
2022-11-04T18:39:31.488Z,12.76
2022-11-04T18:42:00.682Z,12.73
2022-11-04T18:44:28.685Z,12.72
2022-11-04T18:46:56.509Z,12.68
2022-11-04T18:49:24.857Z,12.71
2022-11-04T18:51:52.668Z,12.73
2022-11-04T18:54:20.670Z,12.68
2022-11-04T18:56:48.487Z,12.69
2022-11-04T18:59:18.024Z,12.77
2022-11-04T19:01:46.155Z,12.76
2022-11-04T19:04:14.211Z,12.80
2022-11-04T19:06:44.110Z,12.80
2022-11-04T19:09:46.076Z,12.79
2022-11-04T19:12:23.367Z,12.79
2022-11-04T19:14:53.591Z,12.76
2022-11-04T19:17:21.658Z,12.77
2022-11-04T19:19:49.587Z,12.75
2022-11-04T19:22:17.499Z,12.70
2022-11-04T19:24:45.977Z,12.66
2022-11-04T19:27:14.436Z,12.63
2022-11-04T19:29:42.289Z,12.58
2022-11-04T19:32:14.302Z,12.53
2022-11-04T19:34:43.123Z,12.48
2022-11-04T19:37:11.601Z,12.42
2022-11-04T19:39:39.973Z,12.37
2022-11-04T19:42:25.878Z,12.35
2022-11-04T19:44:53.693Z,12.22
2022-11-04T19:47:22.897Z,12.15
2022-11-04T19:49:50.703Z,12.00
2022-11-04T19:52:18.513Z,11.79
2022-11-04T19:54:46.295Z,11.70
2022-11-04T19:57:14.113Z,11.62
2022-11-04T19:59:41.927Z,11.57
2022-11-04T20:02:11.103Z,11.54
2022-11-04T20:04:40.430Z,11.52
2022-11-04T20:07:08.279Z,11.53
2022-11-04T20:09:36.133Z,11.57
2022-11-04T20:12:32.914Z,11.54
2022-11-04T20:15:00.753Z,11.48
2022-11-04T20:17:28.626Z,11.61
2022-11-04T20:19:57.819Z,11.65
2022-11-04T20:22:25.662Z,11.68
2022-11-04T20:24:53.486Z,11.59
2022-11-04T20:27:21.316Z,11.38
2022-11-04T20:29:49.197Z,11.17
2022-11-04T20:32:17.020Z,11.22
2022-11-04T20:34:45.191Z,11.28
2022-11-04T20:37:14.882Z,11.30
2022-11-04T20:39:43.702Z,11.19
2022-11-04T20:42:11.543Z,11.18
2022-11-04T20:44:39.470Z,11.14
2022-11-04T20:47:07.290Z,11.27
2022-11-04T20:49:35.129Z,11.31
2022-11-04T20:52:04.383Z,11.33
2022-11-04T20:54:33.707Z,11.42
2022-11-04T20:57:01.513Z,11.49
2022-11-04T20:59:29.483Z,11.53
2022-11-04T21:01:57.502Z,11.55
2022-11-04T21:04:25.426Z,11.57
2022-11-04T21:06:53.359Z,11.61
2022-11-04T21:09:22.523Z,11.62
2022-11-04T21:11:51.646Z,11.51
2022-11-04T21:14:20.197Z,11.61
2022-11-04T21:16:48.603Z,11.55
2022-11-04T21:19:17.165Z,11.50
2022-11-04T21:21:46.869Z,11.44
2022-11-04T21:24:16.314Z,11.41
2022-11-04T21:26:45.553Z,11.44
2022-11-04T21:29:16.837Z,11.47
2022-11-04T21:31:46.004Z,11.42
2022-11-04T21:34:14.056Z,11.39
2022-11-04T21:36:42.292Z,11.16
2022-11-04T21:39:11.099Z,11.28
2022-11-04T21:41:39.055Z,11.27
2022-11-04T21:44:09.301Z,11.30
2022-11-04T21:46:38.620Z,11.32
2022-11-04T21:49:06.786Z,11.25
2022-11-04T21:51:35.257Z,11.29
2022-11-04T21:54:06.140Z,11.30
2022-11-04T21:56:34.010Z,11.30
2022-11-04T21:59:02.080Z,11.24
2022-11-04T22:01:31.811Z,11.22
2022-11-04T22:04:02.470Z,11.23
2022-11-04T22:06:34.784Z,11.20
2022-11-04T22:09:04.958Z,11.17
2022-11-04T22:11:34.176Z,11.11
2022-11-04T22:14:03.839Z,11.03
2022-11-04T22:16:33.322Z,10.87
2022-11-04T22:19:05.211Z,10.82
2022-11-04T22:21:33.513Z,10.85
2022-11-04T22:24:02.165Z,10.88
2022-11-04T22:26:32.386Z,10.92
2022-11-04T22:29:01.098Z,10.95
2022-11-04T22:31:30.905Z,10.94
2022-11-04T22:33:59.794Z,10.95
2022-11-04T22:36:29.814Z,10.99
2022-11-04T22:38:57.751Z,11.01
2022-11-04T22:41:27.742Z,11.02
2022-11-04T22:43:56.512Z,10.90
2022-11-04T22:46:26.823Z,11.00
2022-11-04T22:48:55.152Z,11.02
2022-11-04T22:51:23.077Z,11.06
2022-11-04T22:53:57.800Z,11.08
2022-11-04T22:56:26.927Z,11.06
2022-11-04T22:58:54.975Z,11.02
2022-11-04T23:01:23.080Z,11.07
2022-11-04T23:03:51.828Z,10.93
2022-11-04T23:06:20.308Z,10.88
2022-11-04T23:08:48.295Z,10.92
2022-11-04T23:11:38.587Z,10.92
2022-11-04T23:14:32.362Z,10.81
2022-11-04T23:17:18.739Z,10.83
2022-11-04T23:19:46.915Z,10.68
2022-11-04T23:22:32.148Z,10.32
2022-11-04T23:25:10.307Z,10.33
2022-11-04T23:27:55.820Z,10.44
2022-11-04T23:30:26.217Z,10.48
2022-11-04T23:32:56.041Z,10.49
2022-11-04T23:35:54.743Z,10.54
2022-11-04T23:38:23.137Z,10.50
2022-11-04T23:41:06.270Z,10.56
2022-11-04T23:43:35.987Z,10.60
2022-11-04T23:46:21.362Z,10.60
2022-11-04T23:49:21.182Z,10.55
2022-11-04T23:52:06.385Z,10.46
2022-11-04T23:54:51.755Z,10.48
2022-11-04T23:57:37.597Z,10.43
